Time;durP1;ratioP1;P1;durP2;ratioP2;P2;SDS_P1;SDS_P2;PMS_P1;PMS_P2;Temp;Humidity;BMP_temperature;BMP_pressure;BME280_temperature;BME280_humidity;BME280_pressure;Samples;Min_cycle;Max_cycle;Signal;HPM_P1;HPM_P2
2022/01/30 00:02:11;;;;;;;;;39.33;30.33;;;;;;;;5139126;27;11376;-76
2022/01/30 00:04:36;;;;;;;;;30.00;27.67;;;;;;;;5139902;27;9764;-77
2022/01/30 00:07:02;;;;;;;;;33.67;31.67;;;;;;;;5139889;27;12260;-76
2022/01/30 00:09:27;;;;;;;;;30.00;27.67;;;;;;;;5139312;27;11576;-76
2022/01/30 00:11:54;;;;;;;;;35.67;30.00;;;;;;;;5141997;27;11621;-76
2022/01/30 00:14:21;;;;;;;;;26.67;23.67;;;;;;;;5142383;27;12469;-75
2022/01/30 00:16:56;;;;;;;;;31.00;28.67;;;;;;;;5142875;27;13298;-76
2022/01/30 00:19:33;;;;;;;;;28.00;22.00;;;;;;;;5123719;27;14412;-75
2022/01/30 00:22:13;;;;;;;;;25.00;21.00;;;;;;;;5142311;27;13643;-75
2022/01/30 00:27:54;;;;;;;;;30.33;22.67;;;;;;;;5058180;28;11498;-76
2022/01/30 00:30:19;;;;;;;;;30.33;23.33;;;;;;;;5057990;28;12467;-77
2022/01/30 00:32:45;;;;;;;;;22.00;21.00;;;;;;;;5074854;28;11104;-75
2022/01/30 00:35:11;;;;;;;;;29.67;25.67;;;;;;;;5074754;28;13287;-77
2022/01/30 00:37:40;;;;;;;;;25.33;22.00;;;;;;;;5058810;28;11757;-77
2022/01/30 00:40:06;;;;;;;;;24.33;24.00;;;;;;;;5057639;28;11732;-76
2022/01/30 00:42:31;;;;;;;;;21.33;18.00;;;;;;;;5108883;27;9140;-77
2022/01/30 00:44:57;;;;;;;;;26.67;21.33;;;;;;;;5142591;27;9967;-76
2022/01/30 00:47:22;;;;;;;;;22.00;18.00;;;;;;;;5142649;27;12316;-75
2022/01/30 00:49:47;;;;;;;;;24.33;24.00;;;;;;;;5142270;27;12419;-76
2022/01/30 00:52:16;;;;;;;;;19.33;17.00;;;;;;;;5141892;27;11993;-76
2022/01/30 00:54:42;;;;;;;;;21.67;19.00;;;;;;;;5141800;27;10869;-76
2022/01/30 00:57:07;;;;;;;;;23.33;20.67;;;;;;;;5142049;27;12419;-76
2022/01/30 00:59:32;;;;;;;;;23.33;21.67;;;;;;;;5142602;27;12314;-76
2022/01/30 01:01:57;;;;;;;;;24.67;22.33;;;;;;;;5142419;27;8776;-75
2022/01/30 01:04:23;;;;;;;;;24.00;21.00;;;;;;;;5141956;27;11890;-75
2022/01/30 01:06:49;;;;;;;;;27.00;23.67;;;;;;;;5142083;27;10488;-77
2022/01/30 01:09:16;;;;;;;;;20.67;18.00;;;;;;;;5141071;27;11545;-76
2022/01/30 01:12:23;;;;;;;;;26.00;23.00;;;;;;;;5142046;27;12256;-76
2022/01/30 01:25:34;;;;;;;;;24.67;19.33;;;;;;;;5140775;27;12416;-76
2022/01/30 01:27:59;;;;;;;;;26.33;21.67;;;;;;;;5140970;27;11547;-76
2022/01/30 01:30:25;;;;;;;;;26.67;24.00;;;;;;;;5141454;27;12378;-75
2022/01/30 01:32:50;;;;;;;;;25.33;22.00;;;;;;;;5141828;27;11600;-76
2022/01/30 01:35:16;;;;;;;;;22.33;18.67;;;;;;;;5141685;27;11743;-75
2022/01/30 01:37:41;;;;;;;;;25.33;21.33;;;;;;;;5122297;27;12588;-76
2022/01/30 01:40:06;;;;;;;;;20.33;17.67;;;;;;;;5141448;27;12742;-75
2022/01/30 01:42:34;;;;;;;;;22.33;18.67;;;;;;;;5141445;27;12164;-75
2022/01/30 01:45:00;;;;;;;;;23.67;23.67;;;;;;;;5141504;27;9155;-75
2022/01/30 01:47:30;;;;;;;;;26.00;23.67;;;;;;;;5141387;27;11547;-76
2022/01/30 01:49:55;;;;;;;;;26.00;21.33;;;;;;;;5141538;27;9015;-75
2022/01/30 01:52:23;;;;;;;;;26.33;24.00;;;;;;;;5140335;27;9337;-75
2022/01/30 01:54:59;;;;;;;;;24.67;23.00;;;;;;;;5140630;27;11121;-76
2022/01/30 01:57:25;;;;;;;;;28.33;24.00;;;;;;;;5140762;27;10454;-76
2022/01/30 01:59:51;;;;;;;;;22.67;21.33;;;;;;;;5141258;27;10507;-75
2022/01/30 02:02:16;;;;;;;;;26.67;20.67;;;;;;;;5141177;27;11422;-75
2022/01/30 02:04:42;;;;;;;;;26.67;23.33;;;;;;;;5140524;27;11439;-76
2022/01/30 02:07:35;;;;;;;;;24.00;23.00;;;;;;;;5121834;27;11220;-76
2022/01/30 02:09:54;;;;;;;;;23.33;20.33;;;;;;;;5140041;27;12095;-76
2022/01/30 02:12:28;;;;;;;;;24.67;22.67;;;;;;;;5141171;27;11976;-76
2022/01/30 02:15:15;;;;;;;;;29.33;24.33;;;;;;;;5121161;27;12257;-75
2022/01/30 02:25:58;;;;;;;;;64.75;50.50;;;;;;;;5140456;27;11441;-75
2022/01/30 02:28:25;;;;;;;;;61.25;52.25;;;;;;;;5140038;27;14746;-75
2022/01/30 02:33:45;;;;;;;;;56.75;47.00;;;;;;;;5075471;28;14323;-76
2022/01/30 02:36:10;;;;;;;;;61.00;47.00;;;;;;;;5076445;28;12273;-76
2022/01/30 02:38:36;;;;;;;;;58.00;51.75;;;;;;;;5076119;28;10173;-76
2022/01/30 02:41:01;;;;;;;;;60.00;51.50;;;;;;;;5076097;28;13391;-76
2022/01/30 02:43:35;;;;;;;;;68.25;53.50;;;;;;;;5084291;27;13387;-76
2022/01/30 02:46:20;;;;;;;;;70.00;53.25;;;;;;;;5140359;27;10469;-76
2022/01/30 02:48:52;;;;;;;;;65.75;53.25;;;;;;;;5139857;27;13550;-76
2022/01/30 02:51:22;;;;;;;;;62.50;51.50;;;;;;;;5139905;27;10431;-76
2022/01/30 02:54:02;;;;;;;;;64.00;53.00;;;;;;;;5139425;27;12592;-76
2022/01/30 02:56:28;;;;;;;;;64.75;53.00;;;;;;;;5139483;27;11643;-76
2022/01/30 02:58:53;;;;;;;;;67.50;54.75;;;;;;;;5139795;27;8764;-75
2022/01/30 03:01:18;;;;;;;;;64.25;48.25;;;;;;;;5140521;27;11543;-76
2022/01/30 03:03:43;;;;;;;;;56.25;47.50;;;;;;;;5140073;27;11393;-75
2022/01/30 03:06:09;;;;;;;;;67.75;51.00;;;;;;;;5121204;27;13747;-75
2022/01/30 03:08:34;;;;;;;;;55.25;47.00;;;;;;;;5140059;27;13435;-76
2022/01/30 03:11:00;;;;;;;;;60.50;49.00;;;;;;;;5139660;27;11384;-75
2022/01/30 03:13:25;;;;;;;;;63.75;49.00;;;;;;;;5139929;27;12369;-75
2022/01/30 03:15:51;;;;;;;;;56.75;47.75;;;;;;;;5139628;27;9421;-76
2022/01/30 03:18:16;;;;;;;;;61.75;45.50;;;;;;;;5139295;27;13352;-75
2022/01/30 03:20:42;;;;;;;;;54.75;49.00;;;;;;;;5139798;27;14096;-76
2022/01/30 03:23:07;;;;;;;;;62.50;50.00;;;;;;;;5139366;27;13766;-76
2022/01/30 03:25:33;;;;;;;;;54.75;44.25;;;;;;;;5139515;27;12194;-77
2022/01/30 03:28:01;;;;;;;;;53.50;46.00;;;;;;;;5139545;27;13308;-76
2022/01/30 03:30:29;;;;;;;;;62.75;49.75;;;;;;;;5139708;27;11550;-76
2022/01/30 03:32:55;;;;;;;;;54.25;46.75;;;;;;;;5139837;27;13570;-76
2022/01/30 03:35:20;;;;;;;;;53.00;46.00;;;;;;;;5139233;27;11397;-77
2022/01/30 03:37:45;;;;;;;;;52.00;44.25;;;;;;;;5138956;27;11421;-77
2022/01/30 03:40:11;;;;;;;;;39.75;34.50;;;;;;;;5139530;27;11395;-76
2022/01/30 03:42:38;;;;;;;;;53.25;46.00;;;;;;;;5140056;27;13306;-76
2022/01/30 03:45:03;;;;;;;;;50.00;42.25;;;;;;;;5139473;27;13579;-76
2022/01/30 03:47:29;;;;;;;;;57.75;48.00;;;;;;;;5142632;27;11475;-75
2022/01/30 03:49:54;;;;;;;;;57.00;46.75;;;;;;;;5142792;27;11958;-76
2022/01/30 03:52:19;;;;;;;;;60.50;50.50;;;;;;;;5142852;27;10418;-76
2022/01/30 03:54:45;;;;;;;;;61.75;48.50;;;;;;;;5142860;27;13260;-76
2022/01/30 03:57:11;;;;;;;;;57.25;45.00;;;;;;;;5143261;27;12820;-78
2022/01/30 03:59:37;;;;;;;;;58.00;47.50;;;;;;;;5143131;27;13295;-75
2022/01/30 04:02:03;;;;;;;;;48.75;44.25;;;;;;;;5143185;27;11563;-75
2022/01/30 04:04:32;;;;;;;;;48.25;44.75;;;;;;;;5142974;27;13394;-75
2022/01/30 04:06:58;;;;;;;;;61.50;48.00;;;;;;;;5142436;27;8771;-76
2022/01/30 04:09:24;;;;;;;;;56.00;45.50;;;;;;;;5142903;27;13238;-75
2022/01/30 04:11:49;;;;;;;;;43.25;42.00;;;;;;;;5142454;27;13961;-75
2022/01/30 04:14:15;;;;;;;;;46.75;41.25;;;;;;;;5142471;27;13515;-76
2022/01/30 04:16:40;;;;;;;;;50.25;41.75;;;;;;;;5143065;27;11928;-76
2022/01/30 04:19:06;;;;;;;;;51.00;43.75;;;;;;;;5142592;27;12249;-76
2022/01/30 04:21:31;;;;;;;;;42.25;39.75;;;;;;;;5142895;27;10397;-76
2022/01/30 04:23:56;;;;;;;;;51.75;41.75;;;;;;;;5142187;27;12224;-76
2022/01/30 04:26:22;;;;;;;;;45.50;39.00;;;;;;;;5142650;27;12474;-76
2022/01/30 04:28:47;;;;;;;;;46.50;42.00;;;;;;;;5142480;27;13291;-75
2022/01/30 04:31:13;;;;;;;;;45.00;42.50;;;;;;;;5142572;27;10713;-77
2022/01/30 04:33:38;;;;;;;;;46.00;42.75;;;;;;;;5142264;27;11544;-76
2022/01/30 04:36:08;;;;;;;;;45.75;41.50;;;;;;;;5142040;27;11610;-76
2022/01/30 04:38:52;;;;;;;;;43.75;41.00;;;;;;;;5142006;27;11691;-75
2022/01/30 05:00:03;;;;;;;;;46.00;42.50;;;;;;;;5121466;28;11487;-77
2022/01/30 05:09:50;;;;;;;;;48.50;45.00;;;;;;;;5110960;28;13210;-74
2022/01/30 05:12:16;;;;;;;;;51.50;45.00;;;;;;;;5109321;28;13268;-76
2022/01/30 05:14:41;;;;;;;;;40.00;37.00;;;;;;;;5109326;28;8795;-76
2022/01/30 05:17:07;;;;;;;;;51.75;47.50;;;;;;;;5110058;28;12225;-75
2022/01/30 05:19:33;;;;;;;;;48.75;44.50;;;;;;;;5110802;28;14533;-76
2022/01/30 05:21:58;;;;;;;;;64.25;51.75;;;;;;;;5108812;28;11104;-76
2022/01/30 05:24:24;;;;;;;;;66.25;52.00;;;;;;;;5100432;28;15599;-75
2022/01/30 05:26:49;;;;;;;;;62.00;51.75;;;;;;;;5110770;28;12443;-75
2022/01/30 05:29:15;;;;;;;;;63.00;51.50;;;;;;;;5109049;28;11755;-77
2022/01/30 05:31:41;;;;;;;;;56.25;46.00;;;;;;;;5114775;28;11521;-76
2022/01/30 05:34:06;;;;;;;;;61.75;49.50;;;;;;;;5119040;28;14346;-75
2022/01/30 05:36:31;;;;;;;;;59.50;48.50;;;;;;;;5119118;28;13245;-78
2022/01/30 05:38:58;;;;;;;;;59.75;50.25;;;;;;;;5119164;28;12434;-75
2022/01/30 05:41:23;;;;;;;;;61.25;46.75;;;;;;;;5116100;28;12478;-75
2022/01/30 05:43:53;;;;;;;;;63.25;52.50;;;;;;;;5099851;28;14545;-80
2022/01/30 05:46:28;;;;;;;;;58.00;47.00;;;;;;;;5119589;28;12505;-80
2022/01/30 05:48:54;;;;;;;;;61.75;52.25;;;;;;;;5119219;28;13423;-81
2022/01/30 05:51:19;;;;;;;;;64.50;53.25;;;;;;;;5100782;28;15750;-80
2022/01/30 05:53:44;;;;;;;;;51.75;45.00;;;;;;;;5119516;28;10341;-80
2022/01/30 05:56:11;;;;;;;;;65.75;55.25;;;;;;;;5100933;28;13571;-76
2022/01/30 05:58:36;;;;;;;;;61.25;49.00;;;;;;;;5118758;28;13533;-83
2022/01/30 06:01:02;;;;;;;;;71.50;55.25;;;;;;;;5118998;28;12253;-76
2022/01/30 06:03:29;;;;;;;;;65.50;54.25;;;;;;;;5118637;28;13217;-79
2022/01/30 06:05:54;;;;;;;;;61.25;51.00;;;;;;;;5119387;28;10744;-76
2022/01/30 06:08:39;;;;;;;;;69.75;55.75;;;;;;;;5116040;28;11722;-78
2022/01/30 06:11:04;;;;;;;;;67.25;53.50;;;;;;;;5118730;28;12771;-81
2022/01/30 06:13:30;;;;;;;;;68.00;54.25;;;;;;;;5119243;28;12867;-78
2022/01/30 06:15:55;;;;;;;;;68.25;55.75;;;;;;;;5119094;28;11583;-78
2022/01/30 06:18:20;;;;;;;;;64.75;51.00;;;;;;;;5118697;28;9662;-81
2022/01/30 06:20:46;;;;;;;;;68.75;55.25;;;;;;;;5120397;28;11754;-82
2022/01/30 06:23:11;;;;;;;;;68.25;53.25;;;;;;;;5119118;28;11579;-79
2022/01/30 06:25:36;;;;;;;;;66.00;52.00;;;;;;;;5118969;28;9466;-81
2022/01/30 06:28:02;;;;;;;;;69.75;55.00;;;;;;;;5118408;28;12137;-81
2022/01/30 06:30:28;;;;;;;;;67.25;54.00;;;;;;;;5118634;28;11545;-80
2022/01/30 06:32:53;;;;;;;;;60.25;49.75;;;;;;;;5118102;28;9598;-80
2022/01/30 06:35:18;;;;;;;;;67.75;55.00;;;;;;;;5118708;28;12695;-83
2022/01/30 06:37:44;;;;;;;;;69.25;54.75;;;;;;;;5119022;28;12265;-77
2022/01/30 06:40:09;;;;;;;;;63.25;52.25;;;;;;;;5118994;28;11390;-78
2022/01/30 06:42:35;;;;;;;;;66.75;51.50;;;;;;;;5119303;28;10438;-77
2022/01/30 06:45:00;;;;;;;;;61.25;50.00;;;;;;;;5118398;28;11384;-77
2022/01/30 06:47:25;;;;;;;;;68.00;53.25;;;;;;;;5097760;28;11706;-77
2022/01/30 06:49:51;;;;;;;;;62.50;52.50;;;;;;;;5116769;28;11477;-76
2022/01/30 06:52:16;;;;;;;;;65.25;53.00;;;;;;;;5117840;28;12076;-76
2022/01/30 06:54:42;;;;;;;;;60.75;48.00;;;;;;;;5117404;28;12417;-77
2022/01/30 06:57:07;;;;;;;;;61.75;50.00;;;;;;;;5117917;28;10913;-76
2022/01/30 06:59:32;;;;;;;;;57.75;45.75;;;;;;;;5118041;28;9605;-78
2022/01/30 07:01:58;;;;;;;;;62.00;50.50;;;;;;;;5117304;28;13231;-76
2022/01/30 07:04:23;;;;;;;;;64.00;53.00;;;;;;;;5117960;28;13384;-77
2022/01/30 07:06:49;;;;;;;;;64.00;51.00;;;;;;;;5117727;28;13132;-76
2022/01/30 07:09:14;;;;;;;;;65.25;52.25;;;;;;;;5099373;28;8898;-77
2022/01/30 07:11:39;;;;;;;;;64.75;52.75;;;;;;;;5118636;28;12740;-76
2022/01/30 07:14:04;;;;;;;;;56.00;47.25;;;;;;;;5118615;28;10605;-75
2022/01/30 07:16:30;;;;;;;;;58.75;50.50;;;;;;;;5117929;28;12375;-84
2022/01/30 07:18:55;;;;;;;;;56.25;45.50;;;;;;;;5118131;28;12467;-79
2022/01/30 07:21:20;;;;;;;;;53.50;43.50;;;;;;;;5120770;27;11716;-77
2022/01/30 07:23:46;;;;;;;;;56.50;47.50;;;;;;;;5101820;28;10628;-79
2022/01/30 07:26:11;;;;;;;;;58.00;46.75;;;;;;;;5102278;28;8981;-79
2022/01/30 07:28:36;;;;;;;;;65.00;50.00;;;;;;;;5121811;28;11394;-79
2022/01/30 07:31:05;;;;;;;;;57.25;46.50;;;;;;;;5103283;28;16585;-79
2022/01/30 07:33:31;;;;;;;;;61.75;48.25;;;;;;;;5122389;28;14515;-81
2022/01/30 07:35:57;;;;;;;;;63.00;48.25;;;;;;;;5126676;27;14314;-79
2022/01/30 07:38:22;;;;;;;;;65.00;50.00;;;;;;;;5115347;27;8973;-83
2022/01/30 07:40:48;;;;;;;;;58.50;48.50;;;;;;;;5123639;27;14601;-81
2022/01/30 07:43:14;;;;;;;;;54.50;46.00;;;;;;;;5142777;27;14016;-81
2022/01/30 07:45:39;;;;;;;;;61.50;50.50;;;;;;;;5142505;27;12785;-82
2022/01/30 07:48:05;;;;;;;;;67.50;53.25;;;;;;;;5123203;27;13665;-84
2022/01/30 07:50:30;;;;;;;;;64.50;52.50;;;;;;;;5143326;27;11646;-81
2022/01/30 07:52:55;;;;;;;;;64.50;52.50;;;;;;;;5143220;27;11373;-80
2022/01/30 07:55:21;;;;;;;;;63.25;51.75;;;;;;;;5142725;27;8780;-76
2022/01/30 07:57:46;;;;;;;;;61.00;51.50;;;;;;;;5122527;27;11559;-78
2022/01/30 08:00:12;;;;;;;;;50.00;43.00;;;;;;;;5122829;28;11838;-78
2022/01/30 08:02:37;;;;;;;;;60.75;50.00;;;;;;;;5121655;28;14490;-76
2022/01/30 08:05:03;;;;;;;;;62.00;51.25;;;;;;;;5121546;28;12441;-78
2022/01/30 08:07:29;;;;;;;;;67.75;52.25;;;;;;;;5103390;28;14435;-79
2022/01/30 08:09:55;;;;;;;;;64.25;54.25;;;;;;;;5121735;28;10482;-76
2022/01/30 08:12:20;;;;;;;;;58.75;50.25;;;;;;;;5120606;28;9785;-76
2022/01/30 08:14:45;;;;;;;;;61.75;49.00;;;;;;;;5095478;28;11855;-75
2022/01/30 08:17:17;;;;;;;;;65.50;53.75;;;;;;;;5119645;28;14079;-80
2022/01/30 08:19:44;;;;;;;;;61.00;46.50;;;;;;;;5101930;28;14420;-77
2022/01/30 08:22:10;;;;;;;;;69.00;56.75;;;;;;;;5101004;28;16001;-80
2022/01/30 08:24:38;;;;;;;;;59.00;49.00;;;;;;;;5119686;28;12489;-80
2022/01/30 08:27:06;;;;;;;;;65.00;50.75;;;;;;;;5116032;27;13696;-78
2022/01/30 08:29:32;;;;;;;;;58.75;47.50;;;;;;;;5118127;28;13860;-77
2022/01/30 08:31:58;;;;;;;;;60.25;50.75;;;;;;;;5109482;28;13246;-77
2022/01/30 08:34:27;;;;;;;;;60.50;49.25;;;;;;;;5111912;28;13562;-81
2022/01/30 08:36:52;;;;;;;;;61.50;51.00;;;;;;;;5109147;28;12329;-84
2022/01/30 08:39:18;;;;;;;;;62.25;50.00;;;;;;;;5111583;28;12283;-85
2022/01/30 08:41:43;;;;;;;;;61.50;49.50;;;;;;;;5111264;27;10373;-81
2022/01/30 08:44:08;;;;;;;;;53.50;45.25;;;;;;;;5099318;27;12871;-79
2022/01/30 08:46:34;;;;;;;;;63.25;53.00;;;;;;;;5121238;27;13242;-83
2022/01/30 08:48:59;;;;;;;;;62.50;50.00;;;;;;;;5103610;27;15451;-82
2022/01/30 08:51:25;;;;;;;;;58.50;49.25;;;;;;;;5108838;27;12607;-79
2022/01/30 08:53:50;;;;;;;;;64.00;53.25;;;;;;;;5085380;27;15639;-80
2022/01/30 08:56:15;;;;;;;;;63.50;50.75;;;;;;;;5105376;27;14469;-81
2022/01/30 08:58:41;;;;;;;;;63.25;51.25;;;;;;;;5111819;27;11486;-79
2022/01/30 10:29:33;;;;;;;;;52.33;44.00;;;;;;;;5162493;27;1405727;-74
2022/01/30 10:31:59;;;;;;;;;66.00;53.00;;;;;;;;5179285;27;24574;-74
2022/01/30 10:34:26;;;;;;;;;63.67;52.67;;;;;;;;5198748;27;12267;-76
2022/01/30 10:37:10;;;;;;;;;64.67;52.00;;;;;;;;5198878;27;12778;-77
2022/01/30 10:39:51;;;;;;;;;66.00;52.67;;;;;;;;5198912;27;11715;-74
2022/01/30 10:42:30;;;;;;;;;68.67;50.67;;;;;;;;5199566;27;11469;-76
2022/01/30 10:44:55;;;;;;;;;65.67;51.33;;;;;;;;5198351;27;10731;-73
2022/01/30 10:47:21;;;;;;;;;66.67;53.00;;;;;;;;5198611;27;11605;-74
2022/01/30 10:49:46;;;;;;;;;67.00;53.00;;;;;;;;5180090;27;14586;-74
2022/01/30 10:52:13;;;;;;;;;67.67;53.00;;;;;;;;5199264;27;9068;-74
2022/01/30 10:54:38;;;;;;;;;65.33;53.00;;;;;;;;5199173;27;8766;-72
2022/01/30 10:57:04;;;;;;;;;58.00;49.00;;;;;;;;5196977;27;8893;-70
2022/01/30 10:59:30;;;;;;;;;67.00;52.67;;;;;;;;5196663;27;12590;-70
2022/01/30 11:02:09;;;;;;;;;64.00;51.00;;;;;;;;5196661;27;13213;-71
2022/01/30 11:04:34;;;;;;;;;59.67;50.00;;;;;;;;5177641;27;12909;-71
2022/01/30 11:07:01;;;;;;;;;58.67;49.33;;;;;;;;5196574;27;12199;-72
2022/01/30 11:09:40;;;;;;;;;52.67;45.00;;;;;;;;5197035;27;12439;-74
2022/01/30 11:12:15;;;;;;;;;60.67;49.00;;;;;;;;5195578;27;11662;-73
2022/01/30 11:17:15;;;;;;;;;59.00;47.33;;;;;;;;5197170;27;12551;-75
2022/01/30 11:19:41;;;;;;;;;54.33;46.00;;;;;;;;5195311;27;11461;-74
2022/01/30 11:22:14;;;;;;;;;50.00;41.00;;;;;;;;5174338;27;11990;-75
2022/01/30 11:24:46;;;;;;;;;53.67;45.00;;;;;;;;5170733;27;12703;-78
2022/01/30 11:27:13;;;;;;;;;49.50;40.50;;;;;;;;5174573;27;10726;-73
2022/01/30 11:29:38;;;;;;;;;52.25;43.00;;;;;;;;5194805;27;13694;-73
2022/01/30 11:32:05;;;;;;;;;56.67;45.67;;;;;;;;5195769;27;13611;-74
2022/01/30 11:34:31;;;;;;;;;50.75;41.75;;;;;;;;5176256;27;12201;-73
2022/01/30 11:36:57;;;;;;;;;41.00;38.50;;;;;;;;5196087;27;11470;-74
2022/01/30 11:39:22;;;;;;;;;41.00;36.50;;;;;;;;5172387;27;13762;-86
2022/01/30 11:42:06;;;;;;;;;42.00;38.75;;;;;;;;5184833;27;8769;-74
2022/01/30 11:44:31;;;;;;;;;52.25;40.75;;;;;;;;5184774;27;11474;-72
2022/01/30 11:46:59;;;;;;;;;44.25;37.50;;;;;;;;5184096;27;12205;-77
2022/01/30 11:49:55;;;;;;;;;43.75;38.75;;;;;;;;5163991;27;13918;-72
2022/01/30 11:52:40;;;;;;;;;42.00;38.50;;;;;;;;5074523;27;13689;-73
2022/01/30 11:55:06;;;;;;;;;38.75;35.25;;;;;;;;5183197;27;11740;-76
2022/01/30 11:57:32;;;;;;;;;32.00;28.25;;;;;;;;5183538;27;13302;-79
2022/01/30 12:00:00;;;;;;;;;36.75;35.25;;;;;;;;5164834;27;12732;-73
2022/01/30 12:02:29;;;;;;;;;32.00;32.00;;;;;;;;5183231;27;11716;-73
2022/01/30 12:04:56;;;;;;;;;33.75;26.75;;;;;;;;5183379;27;12617;-72
2022/01/30 12:07:40;;;;;;;;;33.25;28.00;;;;;;;;5182859;27;12334;-74
2022/01/30 12:10:27;;;;;;;;;34.00;30.50;;;;;;;;5183025;27;11583;-73
2022/01/30 12:12:54;;;;;;;;;32.00;28.00;;;;;;;;5164952;27;14257;-73
2022/01/30 12:15:46;;;;;;;;;31.00;25.75;;;;;;;;5183272;27;12643;-73
2022/01/30 12:18:13;;;;;;;;;25.25;19.00;;;;;;;;5177783;27;11656;-74
2022/01/30 12:20:57;;;;;;;;;23.75;22.25;;;;;;;;5183840;27;13293;-73
2022/01/30 12:23:26;;;;;;;;;24.50;22.00;;;;;;;;5183060;27;12282;-74
2022/01/30 12:26:03;;;;;;;;;21.50;18.25;;;;;;;;5183124;27;11449;-74
2022/01/30 12:28:40;;;;;;;;;22.50;20.00;;;;;;;;5183439;27;12288;-73
2022/01/30 12:31:24;;;;;;;;;19.00;19.00;;;;;;;;5182591;27;12385;-73
2022/01/30 12:33:57;;;;;;;;;23.00;19.75;;;;;;;;5183281;27;12583;-73
2022/01/30 12:36:23;;;;;;;;;16.25;16.00;;;;;;;;5182905;27;13361;-72
2022/01/30 12:38:52;;;;;;;;;20.25;18.00;;;;;;;;5182568;27;13222;-73
2022/01/30 12:41:20;;;;;;;;;20.25;18.50;;;;;;;;5183078;27;10416;-73
2022/01/30 12:43:45;;;;;;;;;22.25;18.75;;;;;;;;5182910;27;11556;-72
2022/01/30 12:46:12;;;;;;;;;20.00;19.00;;;;;;;;5182607;27;11457;-72
2022/01/30 12:48:37;;;;;;;;;23.50;19.00;;;;;;;;5182698;27;11468;-73
2022/01/30 12:51:07;;;;;;;;;24.00;20.50;;;;;;;;5181233;27;11454;-72
2022/01/30 12:53:35;;;;;;;;;17.00;17.00;;;;;;;;5182548;27;12309;-72
2022/01/30 12:56:00;;;;;;;;;21.25;20.00;;;;;;;;5182375;27;13347;-72
2022/01/30 12:58:32;;;;;;;;;21.25;19.00;;;;;;;;5182840;27;12463;-73
2022/01/30 13:01:04;;;;;;;;;24.25;18.00;;;;;;;;5182485;27;8773;-73
2022/01/30 13:03:30;;;;;;;;;23.25;20.00;;;;;;;;5182946;27;11531;-72
2022/01/30 13:05:55;;;;;;;;;18.00;17.00;;;;;;;;5182810;27;11556;-73
2022/01/30 13:08:21;;;;;;;;;16.00;16.00;;;;;;;;5182805;27;12705;-73
2022/01/30 13:10:48;;;;;;;;;17.50;16.00;;;;;;;;5182803;27;8773;-74
2022/01/30 13:13:13;;;;;;;;;21.50;20.25;;;;;;;;5182338;27;9174;-74
2022/01/30 13:15:39;;;;;;;;;20.75;18.75;;;;;;;;5182031;27;13511;-74
2022/01/30 13:18:04;;;;;;;;;19.50;16.50;;;;;;;;5182430;27;11567;-73
2022/01/30 13:20:30;;;;;;;;;19.75;17.00;;;;;;;;5182851;27;13463;-74
2022/01/30 13:22:56;;;;;;;;;15.75;13.25;;;;;;;;5183083;27;10659;-77
2022/01/30 13:25:21;;;;;;;;;18.25;16.00;;;;;;;;5182594;27;11383;-74
2022/01/30 13:27:48;;;;;;;;;15.75;15.75;;;;;;;;5182307;27;11378;-74
2022/01/30 13:30:24;;;;;;;;;21.25;17.25;;;;;;;;5182258;27;11499;-73
2022/01/30 13:32:49;;;;;;;;;18.00;15.75;;;;;;;;5182252;27;12508;-74
2022/01/30 13:35:16;;;;;;;;;23.25;19.00;;;;;;;;5182836;27;12180;-75
2022/01/30 13:37:42;;;;;;;;;19.50;14.75;;;;;;;;5182389;27;13325;-76
2022/01/30 13:40:16;;;;;;;;;12.75;12.00;;;;;;;;5181675;27;13536;-78
2022/01/30 13:47:42;;;;;;;;;16.25;15.00;;;;;;;;5182000;27;11763;-77
2022/01/30 13:50:18;;;;;;;;;22.50;18.00;;;;;;;;5182253;27;11434;-77
2022/01/30 13:52:43;;;;;;;;;25.00;20.00;;;;;;;;5181923;27;13403;-74
2022/01/30 13:55:09;;;;;;;;;22.75;18.25;;;;;;;;5181436;27;11531;-75
2022/01/30 13:57:35;;;;;;;;;20.50;17.75;;;;;;;;5162601;27;12889;-72
2022/01/30 14:00:11;;;;;;;;;20.75;20.00;;;;;;;;5182160;27;11083;-74
2022/01/30 14:02:53;;;;;;;;;18.25;14.00;;;;;;;;5181360;27;13067;-74
2022/01/30 14:05:23;;;;;;;;;22.50;17.75;;;;;;;;5162383;27;12400;-76
2022/01/30 14:07:49;;;;;;;;;21.00;20.75;;;;;;;;5181140;27;13611;-73
2022/01/30 14:10:14;;;;;;;;;24.50;21.50;;;;;;;;5182131;27;12040;-74
2022/01/30 14:12:40;;;;;;;;;22.00;22.00;;;;;;;;5182108;27;11747;-76
2022/01/30 14:15:10;;;;;;;;;22.50;20.00;;;;;;;;5181630;27;11937;-74
2022/01/30 14:17:41;;;;;;;;;17.00;16.50;;;;;;;;5182514;27;9612;-74
2022/01/30 14:20:10;;;;;;;;;22.00;21.00;;;;;;;;5181607;27;13488;-73
2022/01/30 14:22:35;;;;;;;;;25.00;21.25;;;;;;;;5182021;27;13431;-74
2022/01/30 14:25:03;;;;;;;;;21.50;18.50;;;;;;;;5182023;27;11581;-74
2022/01/30 14:27:33;;;;;;;;;26.00;19.00;;;;;;;;5161821;27;14986;-74
2022/01/30 14:30:04;;;;;;;;;20.25;18.50;;;;;;;;5180975;27;11441;-73
2022/01/30 14:32:33;;;;;;;;;22.25;20.25;;;;;;;;5182160;27;11407;-75
2022/01/30 14:34:59;;;;;;;;;20.75;17.25;;;;;;;;5162495;27;14818;-74
2022/01/30 14:37:25;;;;;;;;;21.00;20.00;;;;;;;;5181737;27;11436;-73
2022/01/30 14:39:56;;;;;;;;;20.50;19.00;;;;;;;;5181452;27;12452;-74
2022/01/30 14:42:22;;;;;;;;;27.50;21.25;;;;;;;;5181081;27;12542;-73
2022/01/30 14:44:47;;;;;;;;;20.25;19.50;;;;;;;;5180798;27;12299;-73
2022/01/30 14:47:13;;;;;;;;;17.25;17.00;;;;;;;;5161677;27;12590;-72
2022/01/30 14:49:38;;;;;;;;;17.50;15.75;;;;;;;;5180577;27;13232;-73
2022/01/30 14:52:05;;;;;;;;;18.75;18.75;;;;;;;;5181593;27;10400;-73
2022/01/30 14:54:30;;;;;;;;;17.50;17.25;;;;;;;;5181259;27;10649;-73
2022/01/30 14:56:56;;;;;;;;;18.50;17.00;;;;;;;;5181226;27;11432;-73
2022/01/30 14:59:21;;;;;;;;;16.50;16.50;;;;;;;;5180561;27;11652;-73
2022/01/30 15:01:46;;;;;;;;;20.75;17.00;;;;;;;;5180778;27;12073;-73
2022/01/30 15:04:12;;;;;;;;;7.75;5.00;;;;;;;;5180600;27;13391;-73
2022/01/30 15:06:37;;;;;;;;;17.00;16.00;;;;;;;;5180686;27;23811;-73
2022/01/30 15:09:04;;;;;;;;;17.00;16.50;;;;;;;;5180151;27;23421;-73
2022/01/30 15:11:29;;;;;;;;;22.50;18.00;;;;;;;;5181167;27;8877;-74
2022/01/30 15:13:55;;;;;;;;;19.75;16.00;;;;;;;;5180832;27;13235;-72
2022/01/30 15:16:27;;;;;;;;;17.50;16.00;;;;;;;;5165388;27;12536;-73
2022/01/30 15:18:53;;;;;;;;;19.50;18.25;;;;;;;;5184632;27;9117;-73
2022/01/30 15:21:18;;;;;;;;;18.25;17.50;;;;;;;;5184566;27;11851;-72
2022/01/30 15:23:43;;;;;;;;;18.00;17.00;;;;;;;;5165964;27;13333;-73
2022/01/30 15:26:09;;;;;;;;;20.50;16.25;;;;;;;;5184796;27;8805;-73
2022/01/30 15:28:35;;;;;;;;;21.00;17.00;;;;;;;;5164803;27;15357;-72
2022/01/30 15:31:00;;;;;;;;;20.00;16.50;;;;;;;;5184233;27;11477;-73
2022/01/30 15:33:26;;;;;;;;;19.00;16.00;;;;;;;;5164338;27;11904;-74
2022/01/30 15:35:52;;;;;;;;;18.75;15.50;;;;;;;;5184143;27;15025;-73
2022/01/30 15:38:18;;;;;;;;;16.25;14.50;;;;;;;;5184599;27;11499;-72
2022/01/30 15:40:43;;;;;;;;;16.75;16.00;;;;;;;;5184646;27;11416;-73
2022/01/30 15:43:09;;;;;;;;;18.50;16.75;;;;;;;;5184057;27;10343;-73
2022/01/30 15:51:10;;;;;;;;;15.25;13.25;;;;;;;;5183637;27;14187;-73
2022/01/30 15:53:36;;;;;;;;;14.75;14.25;;;;;;;;5183416;27;11463;-72
2022/01/30 15:56:04;;;;;;;;;17.00;17.00;;;;;;;;5183939;27;9758;-73
2022/01/30 15:58:29;;;;;;;;;16.75;16.00;;;;;;;;5183710;27;12136;-76
2022/01/30 16:00:55;;;;;;;;;19.00;16.00;;;;;;;;5180277;27;12074;-80
2022/01/30 16:03:21;;;;;;;;;15.00;12.25;;;;;;;;5182564;27;8786;-80
2022/01/30 16:05:47;;;;;;;;;17.00;16.00;;;;;;;;5183545;27;12574;-82
2022/01/30 16:08:15;;;;;;;;;11.00;10.00;;;;;;;;5182177;27;11633;-85
2022/01/30 16:10:42;;;;;;;;;19.25;16.50;;;;;;;;5181048;27;11424;-88
2022/01/30 16:15:51;;;;;;;;;15.25;13.75;;;;;;;;5182164;27;12383;-79
2022/01/30 16:18:16;;;;;;;;;12.50;11.00;;;;;;;;5183704;27;13176;-76
2022/01/30 16:20:42;;;;;;;;;17.75;16.25;;;;;;;;5185181;27;11526;-81
2022/01/30 16:23:09;;;;;;;;;16.00;15.00;;;;;;;;5183616;27;11478;-79
2022/01/30 16:25:36;;;;;;;;;21.25;17.25;;;;;;;;5163405;27;12129;-83
2022/01/30 16:28:02;;;;;;;;;24.00;21.50;;;;;;;;5163995;27;15317;-81
2022/01/30 16:30:27;;;;;;;;;26.25;23.50;;;;;;;;5183397;27;12515;-84
2022/01/30 16:32:52;;;;;;;;;32.75;26.75;;;;;;;;5183744;27;10387;-75
2022/01/30 16:35:18;;;;;;;;;33.25;29.75;;;;;;;;5183299;27;13458;-77
2022/01/30 16:37:43;;;;;;;;;55.67;43.67;;;;;;;;5164445;27;12498;-86
2022/01/30 16:40:08;;;;;;;;;61.00;50.33;;;;;;;;5182738;27;13490;-83
2022/01/30 16:42:35;;;;;;;;;64.67;54.00;;;;;;;;5182670;27;13798;-77
2022/01/30 16:45:03;;;;;;;;;75.00;58.33;;;;;;;;5183424;27;11737;-78
2022/01/30 16:47:31;;;;;;;;;76.33;60.00;;;;;;;;5182184;27;13739;-77
2022/01/30 16:49:56;;;;;;;;;75.00;60.33;;;;;;;;5182676;27;12615;-77
2022/01/30 16:52:22;;;;;;;;;76.75;59.25;;;;;;;;5182833;27;11674;-82
2022/01/30 16:54:47;;;;;;;;;71.00;57.33;;;;;;;;5182210;27;12014;-85
2022/01/30 16:57:12;;;;;;;;;79.50;61.75;;;;;;;;5182221;27;10581;-81